Time;durP1;ratioP1;P1;durP2;ratioP2;P2;SDS_P1;SDS_P2;PMS_P1;PMS_P2;Temp;Humidity;BMP_temperature;BMP_pressure;BME280_temperature;BME280_humidity;BME280_pressure;Samples;Min_cycle;Max_cycle;Signal;HPM_P1;HPM_P2
2022/07/12 00:00:41;;;;;;;;;;;;;;;;;;2141155;27;19929;-46
2022/07/12 00:01:41;;;;;;;;;;;;;;;;;;2141048;27;20287;-47
2022/07/12 00:02:42;;;;;;;;;;;;;;;;;;2141213;27;19923;-47
2022/07/12 00:03:43;;;;;;;;;;;;;;;;;;2141190;27;19923;-46
2022/07/12 00:04:44;;;;;;;;;;;;;;;;;;2141064;27;20013;-46
2022/07/12 00:05:45;;;;;;;;;;;;;;;;;;2141021;27;19929;-45
2022/07/12 00:06:46;;;;;;;;;;;;;;;;;;2140958;27;19923;-46
2022/07/12 00:07:47;;;;;;;;;;;;;;;;;;2141398;27;20269;-43
2022/07/12 00:08:48;;;;;;;;;;;;;;;;;;2140951;27;19962;-43
2022/07/12 00:09:49;;;;;;;;;;;;;;;;;;2141016;27;19923;-43
2022/07/12 00:10:50;;;;;;;;;;;;;;;;;;2140999;27;20001;-46
2022/07/12 00:11:51;;;;;;;;;;;;;;;;;;2132551;27;20290;-43
2022/07/12 00:12:52;;;;;;;;;;;;;;;;;;2132684;27;19930;-46
2022/07/12 00:13:53;;;;;;;;;;;;;;;;;;2132252;27;19923;-46
2022/07/12 00:14:54;;;;;;;;;;;;;;;;;;2132468;27;20014;-46
2022/07/12 00:15:56;;;;;;;;;;;;;;;;;;2132220;27;19975;-47
2022/07/12 00:16:57;;;;;;;;;;;;;;;;;;2132248;27;20407;-45
2022/07/12 00:17:58;;;;;;;;;;;;;;;;;;2132713;27;19931;-43
2022/07/12 00:18:59;;;;;;;;;;;;;;;;;;2132222;27;20442;-43
2022/07/12 00:20:00;;;;;;;;;;;;;;;;;;2141013;27;19997;-43
2022/07/12 00:21:01;;;;;;;;;;;;;;;;;;2140946;27;20013;-43
2022/07/12 00:22:02;;;;;;;;;;;;;;;;;;2140856;27;19923;-45
2022/07/12 00:23:03;;;;;;;;;;;;;;;;;;2140793;27;19954;-44
2022/07/12 00:24:04;;;;;;;;;;;;;;;;;;2140912;27;19985;-44
2022/07/12 00:25:04;;;;;;;;;;;;;;;;;;2140836;27;19923;-44
2022/07/12 00:26:05;;;;;;;;;;;;;;;;;;2140721;27;20303;-44
2022/07/12 00:27:06;;;;;;;;;;;;;;;;;;2140895;27;19930;-44
2022/07/12 00:28:07;;;;;;;;;;;;;;;;;;2140905;27;20399;-43
2022/07/12 00:29:08;;;;;;;;;;;;;;;;;;2140724;27;19923;-44
2022/07/12 00:30:09;;;;;;;;;;;;;;;;;;2140879;27;19966;-45
2022/07/12 00:31:09;;;;;;;;;;;;;;;;;;2140843;27;19947;-43
2022/07/12 00:32:11;;;;;;;;;;;;;;;;;;2140752;27;19922;-44
2022/07/12 00:33:11;;;;;;;;;;;;;;;;;;2141150;27;19922;-47
2022/07/12 00:34:12;;;;;;;;;;;;;;;;;;2140763;27;19922;-46
2022/07/12 00:35:13;;;;;;;;;;;;;;;;;;2140938;27;19923;-46
2022/07/12 00:36:14;;;;;;;;;;;;;;;;;;2140772;27;20355;-46
2022/07/12 00:37:15;;;;;;;;;;;;;;;;;;2140773;27;19922;-46
2022/07/12 00:38:16;;;;;;;;;;;;;;;;;;2140928;27;20375;-46
2022/07/12 00:39:16;;;;;;;;;;;;;;;;;;2140796;27;20017;-46
2022/07/12 00:40:17;;;;;;;;;;;;;;;;;;2140843;27;19922;-45
2022/07/12 00:41:19;;;;;;;;;;;;;;;;;;2140185;27;20017;-47
2022/07/12 00:42:20;;;;;;;;;;;;;;;;;;2140677;27;20404;-47
2022/07/12 00:43:21;;;;;;;;;;;;;;;;;;2140910;27;20060;-46
2022/07/12 00:44:22;;;;;;;;;;;;;;;;;;2140666;27;19972;-46
2022/07/12 00:45:23;;;;;;;;;;;;;;;;;;2140700;27;19923;-46
2022/07/12 00:46:24;;;;;;;;;;;;;;;;;;2140704;27;20410;-46
2022/07/12 00:47:25;;;;;;;;;;;;;;;;;;2140793;27;19923;-44
2022/07/12 00:48:26;;;;;;;;;;;;;;;;;;2141016;27;19922;-44
2022/07/12 00:49:26;;;;;;;;;;;;;;;;;;2140768;27;19969;-44
2022/07/12 00:50:27;;;;;;;;;;;;;;;;;;2140784;27;20351;-45
2022/07/12 00:51:28;;;;;;;;;;;;;;;;;;2140683;27;19933;-44
2022/07/12 00:52:29;;;;;;;;;;;;;;;;;;2140865;27;19944;-45
2022/07/12 00:53:30;;;;;;;;;;;;;;;;;;2140645;27;19983;-44
2022/07/12 00:54:31;;;;;;;;;;;;;;;;;;2140826;27;19923;-45
2022/07/12 00:55:32;;;;;;;;;;;;;;;;;;2140785;27;20038;-44
2022/07/12 00:56:33;;;;;;;;;;;;;;;;;;2140590;27;20307;-44
2022/07/12 00:57:33;;;;;;;;;;;;;;;;;;2140777;27;20340;-43
2022/07/12 00:58:34;;;;;;;;;;;;;;;;;;2140667;27;19922;-44
2022/07/12 00:59:35;;;;;;;;;;;;;;;;;;2140549;27;19923;-44
2022/07/12 01:00:36;;;;;;;;;;;;;;;;;;2140858;27;19931;-45
2022/07/12 01:01:37;;;;;;;;;;;;;;;;;;2140712;27;19962;-46
2022/07/12 01:02:38;;;;;;;;;;;;;;;;;;2140721;27;19939;-45
2022/07/12 01:03:39;;;;;;;;;;;;;;;;;;2140670;27;19927;-46
2022/07/12 01:04:40;;;;;;;;;;;;;;;;;;2140596;27;20017;-45
2022/07/12 01:05:42;;;;;;;;;;;;;;;;;;2140765;27;19929;-47
2022/07/12 01:06:43;;;;;;;;;;;;;;;;;;2140684;27;20290;-46
2022/07/12 01:07:43;;;;;;;;;;;;;;;;;;2140568;27;19923;-45
2022/07/12 01:08:44;;;;;;;;;;;;;;;;;;2140607;27;19945;-46
2022/07/12 01:09:45;;;;;;;;;;;;;;;;;;2140686;27;19966;-46
2022/07/12 01:10:46;;;;;;;;;;;;;;;;;;2140726;27;19968;-45
2022/07/12 01:11:47;;;;;;;;;;;;;;;;;;2132728;27;20018;-46
2022/07/12 01:12:48;;;;;;;;;;;;;;;;;;2131928;27;20308;-46
2022/07/12 01:13:50;;;;;;;;;;;;;;;;;;2131960;27;19923;-45
2022/07/12 01:14:51;;;;;;;;;;;;;;;;;;2131853;27;19923;-47
2022/07/12 01:15:52;;;;;;;;;;;;;;;;;;2137200;27;19927;-46
2022/07/12 01:16:53;;;;;;;;;;;;;;;;;;2140444;27;19923;-45
2022/07/12 01:17:56;;;;;;;;;;;;;;;;;;2140719;27;19922;-45
2022/07/12 01:18:57;;;;;;;;;;;;;;;;;;2140516;27;19922;-46
2022/07/12 01:19:58;;;;;;;;;;;;;;;;;;2140581;27;19930;-47
2022/07/12 01:20:58;;;;;;;;;;;;;;;;;;2140369;27;19978;-46
2022/07/12 01:21:59;;;;;;;;;;;;;;;;;;2140406;27;20303;-45
2022/07/12 01:23:00;;;;;;;;;;;;;;;;;;2140670;27;19938;-45
2022/07/12 01:24:01;;;;;;;;;;;;;;;;;;2140003;27;19923;-46
2022/07/12 01:25:02;;;;;;;;;;;;;;;;;;2139923;27;20009;-46
2022/07/12 01:26:03;;;;;;;;;;;;;;;;;;2140019;27;19927;-47
2022/07/12 01:27:04;;;;;;;;;;;;;;;;;;2140056;27;20029;-46
2022/07/12 01:28:05;;;;;;;;;;;;;;;;;;2140404;27;19923;-45
2022/07/12 01:29:05;;;;;;;;;;;;;;;;;;2140643;27;19923;-45
2022/07/12 01:30:07;;;;;;;;;;;;;;;;;;2140397;27;19975;-45
2022/07/12 01:31:07;;;;;;;;;;;;;;;;;;2140339;27;19927;-45
2022/07/12 01:33:24;;;;;;;;;;;;;;;;;;2140255;27;20009;-46
2022/07/12 01:34:25;;;;;;;;;;;;;;;;;;2140988;27;20080;-44
2022/07/12 01:35:26;;;;;;;;;;;;;;;;;;2140593;27;20319;-45
2022/07/12 01:36:27;;;;;;;;;;;;;;;;;;2140446;27;19987;-46
2022/07/12 01:37:27;;;;;;;;;;;;;;;;;;2140464;27;20047;-45
2022/07/12 01:38:28;;;;;;;;;;;;;;;;;;2140537;27;20074;-46
2022/07/12 01:39:29;;;;;;;;;;;;;;;;;;2140557;27;20391;-45
2022/07/12 01:40:30;;;;;;;;;;;;;;;;;;2140393;27;20013;-46
2022/07/12 01:41:31;;;;;;;;;;;;;;;;;;2140551;27;20393;-44
2022/07/12 01:42:32;;;;;;;;;;;;;;;;;;2140551;27;19923;-44
2022/07/12 01:43:33;;;;;;;;;;;;;;;;;;2140532;27;19969;-44
2022/07/12 01:44:34;;;;;;;;;;;;;;;;;;2140451;27;19923;-44
2022/07/12 01:45:35;;;;;;;;;;;;;;;;;;2140350;27;20013;-44
2022/07/12 01:46:36;;;;;;;;;;;;;;;;;;2140241;27;20334;-44
2022/07/12 01:47:36;;;;;;;;;;;;;;;;;;2140578;27;20363;-45
2022/07/12 01:48:37;;;;;;;;;;;;;;;;;;2140270;27;19962;-45
2022/07/12 01:49:38;;;;;;;;;;;;;;;;;;2140956;27;20017;-46
2022/07/12 01:50:39;;;;;;;;;;;;;;;;;;2140298;27;19971;-46
2022/07/12 01:51:40;;;;;;;;;;;;;;;;;;2140570;27;19987;-46
2022/07/12 01:52:41;;;;;;;;;;;;;;;;;;2139211;27;20291;-46
2022/07/12 01:53:42;;;;;;;;;;;;;;;;;;2140425;27;20056;-45
2022/07/12 01:54:43;;;;;;;;;;;;;;;;;;2140275;27;19926;-46
2022/07/12 01:55:44;;;;;;;;;;;;;;;;;;2140271;27;20359;-46
2022/07/12 01:56:45;;;;;;;;;;;;;;;;;;2140226;27;19923;-45
2022/07/12 01:57:45;;;;;;;;;;;;;;;;;;2140526;27;19966;-46
2022/07/12 01:58:46;;;;;;;;;;;;;;;;;;2140476;27;19922;-45
2022/07/12 01:59:47;;;;;;;;;;;;;;;;;;2140495;27;20017;-45
2022/07/12 02:00:51;;;;;;;;;;;;;;;;;;2140431;27;19927;-44
2022/07/12 02:01:51;;;;;;;;;;;;;;;;;;2140402;27;20025;-44
2022/07/12 02:02:53;;;;;;;;;;;;;;;;;;2140598;27;19922;-44
2022/07/12 02:03:54;;;;;;;;;;;;;;;;;;2140165;27;19923;-44
2022/07/12 02:04:55;;;;;;;;;;;;;;;;;;2140229;27;20126;-43
2022/07/12 02:05:55;;;;;;;;;;;;;;;;;;2140126;27;19922;-45
2022/07/12 02:06:56;;;;;;;;;;;;;;;;;;2140358;27;19972;-45
2022/07/12 02:07:57;;;;;;;;;;;;;;;;;;2140320;27;20257;-43
2022/07/12 02:08:58;;;;;;;;;;;;;;;;;;2140370;27;19965;-44
2022/07/12 02:09:59;;;;;;;;;;;;;;;;;;2140293;27;19962;-45
2022/07/12 02:11:00;;;;;;;;;;;;;;;;;;2140153;27;20446;-44
2022/07/12 02:12:01;;;;;;;;;;;;;;;;;;2139992;27;20375;-43
2022/07/12 02:13:02;;;;;;;;;;;;;;;;;;2140058;27;19923;-45
2022/07/12 02:14:02;;;;;;;;;;;;;;;;;;2140205;27;20408;-46
2022/07/12 02:15:04;;;;;;;;;;;;;;;;;;2140230;27;19937;-44
2022/07/12 02:16:04;;;;;;;;;;;;;;;;;;2139996;27;20458;-44
2022/07/12 02:17:05;;;;;;;;;;;;;;;;;;2140268;27;20013;-44
2022/07/12 02:18:06;;;;;;;;;;;;;;;;;;2140436;27;20407;-45
2022/07/12 02:19:07;;;;;;;;;;;;;;;;;;2140497;27;19923;-45
2022/07/12 02:20:08;;;;;;;;;;;;;;;;;;2140302;27;20164;-45
2022/07/12 02:21:09;;;;;;;;;;;;;;;;;;2140264;27;20302;-44
2022/07/12 02:22:10;;;;;;;;;;;;;;;;;;2140143;27;19984;-46
2022/07/12 02:23:11;;;;;;;;;;;;;;;;;;2140284;27;19923;-48
2022/07/12 02:24:11;;;;;;;;;;;;;;;;;;2140147;27;20405;-44
2022/07/12 02:25:12;;;;;;;;;;;;;;;;;;2140131;27;19923;-45
2022/07/12 02:26:13;;;;;;;;;;;;;;;;;;2140129;27;19976;-45
2022/07/12 02:27:14;;;;;;;;;;;;;;;;;;2140469;27;20011;-46
2022/07/12 02:28:15;;;;;;;;;;;;;;;;;;2140009;27;19969;-44
2022/07/12 02:29:16;;;;;;;;;;;;;;;;;;2140151;27;19923;-44
2022/07/12 02:30:17;;;;;;;;;;;;;;;;;;2140159;27;19930;-44
2022/07/12 02:31:18;;;;;;;;;;;;;;;;;;2140001;27;19966;-46
2022/07/12 02:32:19;;;;;;;;;;;;;;;;;;2140393;27;19926;-46
2022/07/12 02:33:20;;;;;;;;;;;;;;;;;;2140234;27;20408;-45
2022/07/12 02:34:21;;;;;;;;;;;;;;;;;;2140151;27;19923;-46
2022/07/12 02:35:22;;;;;;;;;;;;;;;;;;2140446;27;20312;-45
2022/07/12 02:36:22;;;;;;;;;;;;;;;;;;2139981;27;19922;-45
2022/07/12 02:37:23;;;;;;;;;;;;;;;;;;2140106;27;19927;-46
2022/07/12 02:38:24;;;;;;;;;;;;;;;;;;2140078;27;20340;-47
2022/07/12 02:39:25;;;;;;;;;;;;;;;;;;2140265;27;19923;-44
2022/07/12 02:41:45;;;;;;;;;;;;;;;;;;2140024;27;19959;-45
2022/07/12 02:42:46;;;;;;;;;;;;;;;;;;2139975;27;20017;-46
2022/07/12 02:43:47;;;;;;;;;;;;;;;;;;2139990;27;19923;-45
2022/07/12 02:44:48;;;;;;;;;;;;;;;;;;2140229;27;19927;-44
2022/07/12 02:45:49;;;;;;;;;;;;;;;;;;2140168;27;19923;-45
2022/07/12 02:46:50;;;;;;;;;;;;;;;;;;2139882;27;20014;-45
2022/07/12 02:47:51;;;;;;;;;;;;;;;;;;2140169;27;19930;-46
2022/07/12 02:48:52;;;;;;;;;;;;;;;;;;2139885;27;20376;-44
2022/07/12 02:49:53;;;;;;;;;;;;;;;;;;2140197;27;19972;-46
2022/07/12 02:50:54;;;;;;;;;;;;;;;;;;2140065;27;20363;-47
2022/07/12 02:51:55;;;;;;;;;;;;;;;;;;2140051;27;19965;-46
2022/07/12 02:52:55;;;;;;;;;;;;;;;;;;2140016;27;19977;-45
2022/07/12 02:53:58;;;;;;;;;;;;;;;;;;2140144;27;19989;-45
2022/07/12 02:54:59;;;;;;;;;;;;;;;;;;2140170;27;19927;-44
2022/07/12 02:55:59;;;;;;;;;;;;;;;;;;2140001;27;19922;-45
2022/07/12 02:57:00;;;;;;;;;;;;;;;;;;2140027;27;19931;-46
2022/07/12 02:58:01;;;;;;;;;;;;;;;;;;2140105;27;19923;-45
2022/07/12 02:59:02;;;;;;;;;;;;;;;;;;2140054;27;20001;-45
2022/07/12 03:00:04;;;;;;;;;;;;;;;;;;2139873;27;19923;-45
2022/07/12 03:01:05;;;;;;;;;;;;;;;;;;2139759;27;20022;-46
2022/07/12 03:02:06;;;;;;;;;;;;;;;;;;2139819;27;20412;-46
2022/07/12 03:03:07;;;;;;;;;;;;;;;;;;2140062;27;19930;-45
2022/07/12 03:04:10;;;;;;;;;;;;;;;;;;2140576;27;19922;-45
2022/07/12 03:05:10;;;;;;;;;;;;;;;;;;2141617;27;19922;-47
2022/07/12 03:06:12;;;;;;;;;;;;;;;;;;2141359;27;19929;-47
2022/07/12 03:07:13;;;;;;;;;;;;;;;;;;2141509;27;19929;-45
2022/07/12 03:08:14;;;;;;;;;;;;;;;;;;2141359;27;20274;-44
2022/07/12 03:09:15;;;;;;;;;;;;;;;;;;2141407;27;20022;-45
2022/07/12 03:10:16;;;;;;;;;;;;;;;;;;2141801;27;19929;-44
2022/07/12 03:11:17;;;;;;;;;;;;;;;;;;2138116;27;19970;-44
2022/07/12 03:12:18;;;;;;;;;;;;;;;;;;2132770;27;19958;-47
2022/07/12 03:13:19;;;;;;;;;;;;;;;;;;2132881;27;20029;-45
2022/07/12 03:14:20;;;;;;;;;;;;;;;;;;2133091;27;20010;-45
2022/07/12 03:15:21;;;;;;;;;;;;;;;;;;2132770;27;19923;-45
2022/07/12 03:16:22;;;;;;;;;;;;;;;;;;2132708;27;20079;-46
2022/07/12 03:17:23;;;;;;;;;;;;;;;;;;2133084;27;19927;-45
2022/07/12 03:18:23;;;;;;;;;;;;;;;;;;2132700;27;20391;-45
2022/07/12 03:19:24;;;;;;;;;;;;;;;;;;2132758;27;19930;-45
2022/07/12 03:20:25;;;;;;;;;;;;;;;;;;2132653;27;19975;-45
2022/07/12 03:21:26;;;;;;;;;;;;;;;;;;2132628;27;20022;-45
2022/07/12 03:22:27;;;;;;;;;;;;;;;;;;2132647;27;19923;-46
2022/07/12 03:23:28;;;;;;;;;;;;;;;;;;2132692;27;20300;-46
2022/07/12 03:24:29;;;;;;;;;;;;;;;;;;2132742;27;20007;-46
2022/07/12 03:25:30;;;;;;;;;;;;;;;;;;2132839;27;19966;-49
2022/07/12 03:26:31;;;;;;;;;;;;;;;;;;2132608;27;20029;-45
2022/07/12 03:27:32;;;;;;;;;;;;;;;;;;2132868;27;19966;-45
2022/07/12 03:28:34;;;;;;;;;;;;;;;;;;2132651;27;19923;-46
2022/07/12 03:29:35;;;;;;;;;;;;;;;;;;2133002;27;20352;-47
2022/07/12 03:30:36;;;;;;;;;;;;;;;;;;2132650;27;20015;-46
2022/07/12 03:31:37;;;;;;;;;;;;;;;;;;2132487;27;19923;-45
2022/07/12 03:32:38;;;;;;;;;;;;;;;;;;2132773;27;19927;-45
2022/07/12 03:33:39;;;;;;;;;;;;;;;;;;2132648;27;19923;-45
2022/07/12 03:34:40;;;;;;;;;;;;;;;;;;2132759;27;20363;-46
2022/07/12 03:35:41;;;;;;;;;;;;;;;;;;2132556;27;19923;-45
2022/07/12 03:36:42;;;;;;;;;;;;;;;;;;2132674;27;20010;-45
2022/07/12 03:37:43;;;;;;;;;;;;;;;;;;2132521;27;20026;-45
2022/07/12 03:38:44;;;;;;;;;;;;;;;;;;2132718;27;20363;-45
2022/07/12 03:39:45;;;;;;;;;;;;;;;;;;2132597;27;20025;-45
2022/07/12 03:40:46;;;;;;;;;;;;;;;;;;2132472;27;19923;-46
2022/07/12 03:41:46;;;;;;;;;;;;;;;;;;2132608;27;19923;-45
2022/07/12 03:42:47;;;;;;;;;;;;;;;;;;2132707;27;20087;-46
2022/07/12 03:43:49;;;;;;;;;;;;;;;;;;2132823;27;19977;-45
2022/07/12 03:44:50;;;;;;;;;;;;;;;;;;2132530;27;19930;-47
2022/07/12 03:45:50;;;;;;;;;;;;;;;;;;2132860;27;20011;-47
2022/07/12 03:46:51;;;;;;;;;;;;;;;;;;2132404;27;19930;-46
2022/07/12 03:47:52;;;;;;;;;;;;;;;;;;2132895;27;19923;-46
2022/07/12 03:48:53;;;;;;;;;;;;;;;;;;2132951;27;20010;-46
2022/07/12 03:49:54;;;;;;;;;;;;;;;;;;2137053;27;20014;-46
2022/07/12 03:50:55;;;;;;;;;;;;;;;;;;2141370;27;19982;-46
2022/07/12 03:51:56;;;;;;;;;;;;;;;;;;2141327;27;20017;-45
2022/07/12 03:52:57;;;;;;;;;;;;;;;;;;2141130;27;19958;-46
2022/07/12 03:53:58;;;;;;;;;;;;;;;;;;2141384;27;20067;-45
2022/07/12 03:55:01;;;;;;;;;;;;;;;;;;2141226;27;19934;-45
2022/07/12 03:56:02;;;;;;;;;;;;;;;;;;2140807;27;19929;-46
2022/07/12 03:57:15;;;;;;;;;;;;;;;;;;2140946;27;19930;-45
2022/07/12 03:58:16;;;;;;;;;;;;;;;;;;2141134;27;20010;-45
2022/07/12 03:59:17;;;;;;;;;;;;;;;;;;2141078;27;19966;-45
2022/07/12 04:00:18;;;;;;;;;;;;;;;;;;2141405;27;19923;-45
2022/07/12 04:01:19;;;;;;;;;;;;;;;;;;2141077;27;19969;-45
2022/07/12 04:02:20;;;;;;;;;;;;;;;;;;2141274;27;19926;-45
2022/07/12 04:03:21;;;;;;;;;;;;;;;;;;2141141;27;20027;-45
2022/07/12 04:04:21;;;;;;;;;;;;;;;;;;2141141;27;19966;-46
2022/07/12 04:05:25;;;;;;;;;;;;;;;;;;2140761;27;20295;-45
2022/07/12 04:06:26;;;;;;;;;;;;;;;;;;2140791;27;20026;-46
2022/07/12 04:07:27;;;;;;;;;;;;;;;;;;2141200;27;19922;-46
2022/07/12 04:08:28;;;;;;;;;;;;;;;;;;2140965;27;20009;-45
2022/07/12 04:09:29;;;;;;;;;;;;;;;;;;2141213;27;20121;-46
2022/07/12 04:10:30;;;;;;;;;;;;;;;;;;2141178;27;19929;-45
2022/07/12 04:11:31;;;;;;;;;;;;;;;;;;2135763;27;19923;-46
2022/07/12 04:12:32;;;;;;;;;;;;;;;;;;2132662;27;19923;-45
2022/07/12 04:13:33;;;;;;;;;;;;;;;;;;2132567;27;19923;-45
2022/07/12 04:14:34;;;;;;;;;;;;;;;;;;2132520;27;19929;-45
2022/07/12 04:15:35;;;;;;;;;;;;;;;;;;2132495;27;20402;-45
2022/07/12 04:16:36;;;;;;;;;;;;;;;;;;2132307;27;19923;-45
2022/07/12 04:17:36;;;;;;;;;;;;;;;;;;2132519;27;19962;-46
2022/07/12 04:18:38;;;;;;;;;;;;;;;;;;2132520;27;19929;-46
2022/07/12 04:19:39;;;;;;;;;;;;;;;;;;2132936;27;19931;-45
2022/07/12 04:20:40;;;;;;;;;;;;;;;;;;2140981;27;19955;-46
2022/07/12 04:21:41;;;;;;;;;;;;;;;;;;2141511;27;20013;-47
2022/07/12 04:22:42;;;;;;;;;;;;;;;;;;2141575;27;20013;-45
2022/07/12 04:23:43;;;;;;;;;;;;;;;;;;2141186;27;19927;-47
2022/07/12 04:24:44;;;;;;;;;;;;;;;;;;2141253;27;19923;-46
2022/07/12 04:25:44;;;;;;;;;;;;;;;;;;2140844;27;19986;-45
2022/07/12 04:26:45;;;;;;;;;;;;;;;;;;2141591;27;19994;-45
2022/07/12 04:27:49;;;;;;;;;;;;;;;;;;2141689;27;19991;-45
2022/07/12 04:28:49;;;;;;;;;;;;;;;;;;2141034;27;20337;-45
2022/07/12 04:29:50;;;;;;;;;;;;;;;;;;2141792;27;19923;-47
2022/07/12 04:30:51;;;;;;;;;;;;;;;;;;2141091;27;20006;-45
2022/07/12 04:31:52;;;;;;;;;;;;;;;;;;2141058;27;20287;-47
2022/07/12 04:32:53;;;;;;;;;;;;;;;;;;2141114;27;19954;-45
2022/07/12 04:33:55;;;;;;;;;;;;;;;;;;2141092;27;20375;-46
2022/07/12 04:34:55;;;;;;;;;;;;;;;;;;2141587;27;19926;-45
2022/07/12 04:35:57;;;;;;;;;;;;;;;;;;2141072;27;19911;-44
2022/07/12 04:36:57;;;;;;;;;;;;;;;;;;2141676;27;19927;-45
2022/07/12 04:37:58;;;;;;;;;;;;;;;;;;2141230;27;20015;-46
2022/07/12 04:38:59;;;;;;;;;;;;;;;;;;2141472;27;19966;-46
2022/07/12 04:40:00;;;;;;;;;;;;;;;;;;2140932;27;20025;-46
2022/07/12 04:41:01;;;;;;;;;;;;;;;;;;2140714;27;20013;-45
2022/07/12 04:42:02;;;;;;;;;;;;;;;;;;2140816;27;19974;-46
2022/07/12 04:43:03;;;;;;;;;;;;;;;;;;2141062;27;20036;-45
2022/07/12 04:44:04;;;;;;;;;;;;;;;;;;2141183;27;20439;-46
2022/07/12 04:45:05;;;;;;;;;;;;;;;;;;2141166;27;20363;-45
2022/07/12 04:46:06;;;;;;;;;;;;;;;;;;2140857;27;19922;-45
2022/07/12 04:47:07;;;;;;;;;;;;;;;;;;2141644;27;19922;-45
2022/07/12 04:48:08;;;;;;;;;;;;;;;;;;2140925;27;19929;-44
2022/07/12 04:49:09;;;;;;;;;;;;;;;;;;2141471;27;20383;-44
2022/07/12 04:50:11;;;;;;;;;;;;;;;;;;2141205;27;20018;-44
2022/07/12 04:51:14;;;;;;;;;;;;;;;;;;2141863;27;19929;-46
2022/07/12 04:52:15;;;;;;;;;;;;;;;;;;2141194;27;20005;-45
2022/07/12 04:53:16;;;;;;;;;;;;;;;;;;2141096;27;20021;-45
2022/07/12 04:54:17;;;;;;;;;;;;;;;;;;2140665;27;20275;-46
2022/07/12 04:55:18;;;;;;;;;;;;;;;;;;2140904;27;19923;-45
2022/07/12 04:56:19;;;;;;;;;;;;;;;;;;2141100;27;19923;-46
2022/07/12 04:57:20;;;;;;;;;;;;;;;;;;2140562;27;20279;-46
2022/07/12 04:58:21;;;;;;;;;;;;;;;;;;2140798;27;19927;-45
2022/07/12 04:59:23;;;;;;;;;;;;;;;;;;2141491;27;19930;-45
2022/07/12 05:00:24;;;;;;;;;;;;;;;;;;2140492;27;20017;-46
2022/07/12 05:01:25;;;;;;;;;;;;;;;;;;2137937;27;20079;-44
2022/07/12 05:02:26;;;;;;;;;;;;;;;;;;2132922;27;20489;-46
2022/07/12 05:03:27;;;;;;;;;;;;;;;;;;2131986;27;20018;-45
2022/07/12 05:04:28;;;;;;;;;;;;;;;;;;2132175;27;19923;-45
2022/07/12 05:05:29;;;;;;;;;;;;;;;;;;2132115;27;19927;-46
2022/07/12 05:06:30;;;;;;;;;;;;;;;;;;2132045;27;20425;-45
2022/07/12 05:07:31;;;;;;;;;;;;;;;;;;2132297;27;20401;-45
2022/07/12 05:08:32;;;;;;;;;;;;;;;;;;2132173;27;19927;-45
2022/07/12 05:09:33;;;;;;;;;;;;;;;;;;2132061;27;19968;-46
2022/07/12 05:10:34;;;;;;;;;;;;;;;;;;2132588;27;20344;-45
2022/07/12 05:11:35;;;;;;;;;;;;;;;;;;2131927;27;20044;-45
2022/07/12 05:12:36;;;;;;;;;;;;;;;;;;2131965;27;19966;-44
2022/07/12 05:13:37;;;;;;;;;;;;;;;;;;2132096;27;20019;-47
2022/07/12 05:14:38;;;;;;;;;;;;;;;;;;2132338;27;20062;-44
2022/07/12 05:15:39;;;;;;;;;;;;;;;;;;2132720;27;20022;-45
2022/07/12 05:16:40;;;;;;;;;;;;;;;;;;2132589;27;19927;-45
2022/07/12 05:17:40;;;;;;;;;;;;;;;;;;2132046;27;19923;-45
2022/07/12 05:18:41;;;;;;;;;;;;;;;;;;2132293;27;19992;-45
2022/07/12 05:19:42;;;;;;;;;;;;;;;;;;2132623;27;19923;-45
2022/07/12 05:20:44;;;;;;;;;;;;;;;;;;2132259;27;20011;-45
2022/07/12 05:21:51;;;;;;;;;;;;;;;;;;2132062;27;20358;-46
2022/07/12 05:22:54;;;;;;;;;;;;;;;;;;2131792;27;19927;-45
2022/07/12 05:23:55;;;;;;;;;;;;;;;;;;2132656;27;20373;-45
2022/07/12 05:24:56;;;;;;;;;;;;;;;;;;2132580;27;20131;-45
2022/07/12 05:25:57;;;;;;;;;;;;;;;;;;2132185;27;20383;-44
2022/07/12 05:26:58;;;;;;;;;;;;;;;;;;2132076;27;20018;-45
2022/07/12 05:27:59;;;;;;;;;;;;;;;;;;2132649;27;19978;-44
2022/07/12 05:29:00;;;;;;;;;;;;;;;;;;2132368;27;20375;-45
2022/07/12 05:30:01;;;;;;;;;;;;;;;;;;2132376;27;19991;-44
2022/07/12 05:31:02;;;;;;;;;;;;;;;;;;2132219;27;19971;-44
2022/07/12 05:32:03;;;;;;;;;;;;;;;;;;2132014;27;20026;-45
2022/07/12 05:33:08;;;;;;;;;;;;;;;;;;2132292;27;19923;-45
2022/07/12 05:34:09;;;;;;;;;;;;;;;;;;2132337;27;19927;-43
2022/07/12 05:35:10;;;;;;;;;;;;;;;;;;2131855;27;19954;-44
2022/07/12 05:36:11;;;;;;;;;;;;;;;;;;2132106;27;19923;-44
2022/07/12 05:37:12;;;;;;;;;;;;;;;;;;2137806;27;19929;-45
2022/07/12 05:38:13;;;;;;;;;;;;;;;;;;2140536;27;19923;-44
2022/07/12 05:39:14;;;;;;;;;;;;;;;;;;2140659;27;20383;-45
2022/07/12 05:40:15;;;;;;;;;;;;;;;;;;2141340;27;20009;-45
2022/07/12 05:41:16;;;;;;;;;;;;;;;;;;2140749;27;19957;-45
2022/07/12 05:42:16;;;;;;;;;;;;;;;;;;2140819;27;19923;-44
2022/07/12 05:43:17;;;;;;;;;;;;;;;;;;2140990;27;20336;-46
2022/07/12 05:44:19;;;;;;;;;;;;;;;;;;2140578;27;19944;-45
2022/07/12 05:45:20;;;;;;;;;;;;;;;;;;2140639;27;19926;-45
2022/07/12 05:46:20;;;;;;;;;;;;;;;;;;2140701;27;20399;-45
2022/07/12 05:47:22;;;;;;;;;;;;;;;;;;2140966;27;19927;-45
2022/07/12 05:48:22;;;;;;;;;;;;;;;;;;2140664;27;20025;-45
2022/07/12 05:49:23;;;;;;;;;;;;;;;;;;2140699;27;19923;-45
2022/07/12 05:50:24;;;;;;;;;;;;;;;;;;2140440;27;19930;-45
2022/07/12 05:54:04;;;;;;;;;;;;;;;;;;2141107;27;19923;-48
2022/07/12 05:55:05;;;;;;;;;;;;;;;;;;2140422;27;20018;-45
2022/07/12 05:56:06;;;;;;;;;;;;;;;;;;2141424;27;20036;-43
2022/07/12 05:57:06;;;;;;;;;;;;;;;;;;2140540;27;19966;-45
2022/07/12 05:58:07;;;;;;;;;;;;;;;;;;2140527;27;19922;-45
2022/07/12 05:59:08;;;;;;;;;;;;;;;;;;2140521;27;20414;-43
2022/07/12 06:00:09;;;;;;;;;;;;;;;;;;2141763;27;19926;-44
2022/07/12 06:01:10;;;;;;;;;;;;;;;;;;2140390;27;20005;-43
2022/07/12 06:02:12;;;;;;;;;;;;;;;;;;2140587;27;19979;-45
2022/07/12 06:03:13;;;;;;;;;;;;;;;;;;2140733;27;19923;-43
2022/07/12 06:04:14;;;;;;;;;;;;;;;;;;2140961;27;19933;-44
2022/07/12 06:05:15;;;;;;;;;;;;;;;;;;2140772;27;20009;-46
2022/07/12 06:06:16;;;;;;;;;;;;;;;;;;2140281;27;19950;-46
2022/07/12 06:07:17;;;;;;;;;;;;;;;;;;2140845;27;20351;-45
2022/07/12 06:08:18;;;;;;;;;;;;;;;;;;2140930;27;19922;-46
2022/07/12 06:09:19;;;;;;;;;;;;;;;;;;2140431;27;19987;-44
2022/07/12 06:10:20;;;;;;;;;;;;;;;;;;2140556;27;19930;-44
2022/07/12 06:11:21;;;;;;;;;;;;;;;;;;2136702;27;19923;-46
2022/07/12 06:12:22;;;;;;;;;;;;;;;;;;2131783;27;19979;-45
2022/07/12 06:13:22;;;;;;;;;;;;;;;;;;2132154;27;20014;-45
2022/07/12 06:14:23;;;;;;;;;;;;;;;;;;2131753;27;19930;-45
2022/07/12 06:15:25;;;;;;;;;;;;;;;;;;2132323;27;20006;-43
2022/07/12 06:16:32;;;;;;;;;;;;;;;;;;2131839;27;19930;-46
2022/07/12 06:17:33;;;;;;;;;;;;;;;;;;2132481;27;19923;-47
2022/07/12 06:18:34;;;;;;;;;;;;;;;;;;2132078;27;19923;-44
2022/07/12 06:19:35;;;;;;;;;;;;;;;;;;2131495;27;19967;-43
2022/07/12 06:20:36;;;;;;;;;;;;;;;;;;2131669;27;20440;-45
2022/07/12 06:21:36;;;;;;;;;;;;;;;;;;2132220;27;19924;-46
2022/07/12 06:22:37;;;;;;;;;;;;;;;;;;2131862;27;20270;-45
2022/07/12 06:23:39;;;;;;;;;;;;;;;;;;2132608;27;19934;-46
2022/07/12 06:24:40;;;;;;;;;;;;;;;;;;2132012;27;20403;-43
2022/07/12 06:25:41;;;;;;;;;;;;;;;;;;2131958;27;20399;-46
2022/07/12 06:26:44;;;;;;;;;;;;;;;;;;2131994;27;19946;-45
2022/07/12 06:27:47;;;;;;;;;;;;;;;;;;2132149;27;19929;-44
2022/07/12 06:28:48;;;;;;;;;;;;;;;;;;2131520;27;20036;-48
2022/07/12 06:29:49;;;;;;;;;;;;;;;;;;2132590;27;19927;-46
2022/07/12 06:30:50;;;;;;;;;;;;;;;;;;2131788;27;19923;-45
2022/07/12 06:31:51;;;;;;;;;;;;;;;;;;2131430;27;20010;-48
2022/07/12 06:32:52;;;;;;;;;;;;;;;;;;2131808;27;19923;-44
2022/07/12 06:33:53;;;;;;;;;;;;;;;;;;2131875;27;19923;-45
2022/07/12 06:34:54;;;;;;;;;;;;;;;;;;2131734;27;19923;-46
2022/07/12 06:35:55;;;;;;;;;;;;;;;;;;2132301;27;19927;-44
2022/07/12 06:36:56;;;;;;;;;;;;;;;;;;2131465;27;19930;-43
2022/07/12 06:37:57;;;;;;;;;;;;;;;;;;2131773;27;19984;-44
2022/07/12 06:38:58;;;;;;;;;;;;;;;;;;2131929;27;19923;-45
2022/07/12 06:39:59;;;;;;;;;;;;;;;;;;2133084;27;20340;-45
2022/07/12 06:41:00;;;;;;;;;;;;;;;;;;2133132;27;20078;-43
2022/07/12 06:42:03;;;;;;;;;;;;;;;;;;2133408;27;20000;-46
2022/07/12 06:43:04;;;;;;;;;;;;;;;;;;2133266;27;20010;-47
2022/07/12 06:44:05;;;;;;;;;;;;;;;;;;2133408;27;20063;-45
2022/07/12 06:45:06;;;;;;;;;;;;;;;;;;2133403;27;19989;-46
2022/07/12 06:46:06;;;;;;;;;;;;;;;;;;2133222;27;19965;-47
2022/07/12 06:47:07;;;;;;;;;;;;;;;;;;2133375;27;20021;-46
2022/07/12 06:48:08;;;;;;;;;;;;;;;;;;2133225;27;19983;-44
2022/07/12 06:49:09;;;;;;;;;;;;;;;;;;2133187;27;20284;-45
2022/07/12 06:50:10;;;;;;;;;;;;;;;;;;2133015;27;19962;-46
2022/07/12 06:51:11;;;;;;;;;;;;;;;;;;2132852;27;20013;-46
2022/07/12 06:52:12;;;;;;;;;;;;;;;;;;2133240;27;19955;-46
2022/07/12 06:53:13;;;;;;;;;;;;;;;;;;2137626;27;20009;-45
2022/07/12 06:54:14;;;;;;;;;;;;;;;;;;2142045;27;19962;-47
2022/07/12 06:55:16;;;;;;;;;;;;;;;;;;2142069;27;19994;-46
2022/07/12 06:56:16;;;;;;;;;;;;;;;;;;2142050;27;20392;-44
2022/07/12 06:57:18;;;;;;;;;;;;;;;;;;2142160;27;19937;-47
2022/07/12 06:58:19;;;;;;;;;;;;;;;;;;2141674;27;20398;-46
2022/07/12 06:59:20;;;;;;;;;;;;;;;;;;2141832;27;19930;-44
2022/07/12 07:00:21;;;;;;;;;;;;;;;;;;2141833;27;19945;-46
2022/07/12 07:01:22;;;;;;;;;;;;;;;;;;2141409;27;19922;-46
2022/07/12 07:02:23;;;;;;;;;;;;;;;;;;2141476;27;19922;-46